Terminal Aerodrome Forecast
Issued by NWS Huntsville, AL

Home | Current Version | Previous Version | Text Only | Print | Product List | Glossary On
Versions: 1 2 3 4 5 6 7 8 9 10 11 12 13 14 15 16 17 18 19 20 21 22 23 24 25 26 27 28 29 30 31 32
000
FTUS44 KHUN 231727
TAFHSV
TAF
KHSV 231727Z 2318/2418 17007KT 6SM BR VCTS SCT015CB OVC080
      TEMPO 2318/2322 -SHRA BKN015
     FM240000 VRB04KT 6SM BR VCSH OVC035
     FM240700 VRB02KT 5SM BR OVC015
     FM241200 29005KT 6SM BR SCT015 BKN025 OVC040=

USA.gov is the U.S. government's official web portal to all federal, state and local government web resources and services.